• Join FlightAware (Why Join?)
  • Login
  • US Flag 
01:08PM EDT


 

Airport Tracker/Info


-or-


 

Live Flight TrackerFlight Track Log ✈ CSN6087 ✈ 10-Oct-2013 ✈ ZYMD / MDG - RKSI / ICN

Flight Track Log - Related Links

Times and Time Zones

All times are in EDT time to prevent confusion due to time zone crossing. See the CSN6087 flight status page for this flight to view local times or setup timezone preferences in your user account.

Time Position Orientation Groundspeed Altitude Reporting Facility
EDT Latitude Longitude Course Direction KTS MPH feet Rate Location/Type
03:38AM 44.4598 129.5371 199° South  Level Estimated
03:39AM 44.3955 129.5053 199° South  Level Estimated
03:40AM 44.3312 129.4736 199° South  Level Estimated
03:41AM 44.2669 129.4419 199° South  Level Estimated
03:41AM 43.6980 127.4680 199° South 368 423 34,100  Level FlightAware
03:42AM 44.2026 129.4103 199° South  Level Estimated
03:42AM 43.6710 127.4000 241° Southwest 368 423 34,100  Level FlightAware
03:42AM 43.6450 127.3370 240° Southwest 368 423 34,100  Level FlightAware
03:43AM 43.6210 127.2760 241° Southwest 368 423 34,100  Level FlightAware
03:43AM 43.5950 127.2110 241° Southwest 368 423 34,100  Level FlightAware
03:44AM 43.5690 127.1480 240° Southwest 368 423 34,100  Level FlightAware
03:45AM 43.5440 127.0850 241° Southwest 368 423 34,100  Level FlightAware
03:45AM 43.5190 127.0230 241° Southwest 368 423 34,100  Level FlightAware
03:46AM 43.4930 126.9580 241° Southwest 368 423 34,100  Level FlightAware
03:46AM 43.4680 126.8950 241° Southwest 368 423 34,100  Level FlightAware
03:47AM 43.4420 126.8320 240° Southwest 368 423 34,100  Level FlightAware
03:48AM 43.4160 126.7680 241° Southwest 368 423 34,100  Level FlightAware
03:48AM 43.3910 126.7050 241° Southwest 368 423 34,100  Level FlightAware
03:49AM 43.3660 126.6430 241° Southwest 368 423 34,100  Level FlightAware
03:50AM 43.3400 126.5780 241° Southwest 368 423 34,100  Level FlightAware
03:50AM 43.3150 126.5160 241° Southwest 368 423 34,100  Level FlightAware
03:51AM 43.2890 126.4530 240° Southwest 368 423 34,100  Level FlightAware
03:53AM 43.1663 126.4529 180° South  Level Estimated
03:54AM 43.0981 126.4529 180° South  Level Estimated
03:55AM 43.0299 126.4529 180° South  Level Estimated
03:56AM 42.9617 126.4529 180° South  Level Estimated
03:57AM 42.8936 126.4528 180° South  Level Estimated
03:58AM 42.8254 126.4528 180° South  Level Estimated
03:59AM 42.7572 126.4528 180° South  Level Estimated
04:00AM 42.6890 126.4527 180° South  Level Estimated
04:01AM 42.6208 126.4527 180° South  Level Estimated
04:02AM 42.5527 126.4527 180° South  Level Estimated
04:03AM 42.4845 126.4526 180° South  Level Estimated
04:04AM 42.4163 126.4526 180° South  Level Estimated
04:05AM 42.3481 126.4526 180° South  Level Estimated
04:06AM 42.2799 126.4526 180° South  Level Estimated
04:07AM 42.2118 126.4525 180° South  Level Estimated
04:08AM 42.1436 126.4525 180° South  Level Estimated
04:09AM 42.0754 126.4525 180° South  Level Estimated
04:10AM 42.0072 126.4524 180° South  Level Estimated
04:11AM 41.9390 126.4524 180° South  Level Estimated
04:12AM 41.8709 126.4524 180° South  Level Estimated
04:13AM 41.8027 126.4523 180° South  Level Estimated
04:14AM 41.7345 126.4523 180° South  Level Estimated
04:15AM 41.6663 126.4523 180° South  Level Estimated
04:16AM 41.5981 126.4522 180° South  Level Estimated
04:17AM 41.5300 126.4522 180° South  Level Estimated
04:18AM 41.4618 126.4522 180° South  Level Estimated
04:19AM 41.3936 126.4522 180° South  Level Estimated
04:20AM 41.3254 126.4521 180° South  Level Estimated
04:21AM 41.2572 126.4521 180° South  Level Estimated
04:22AM 41.1891 126.4521 180° South  Level Estimated
04:23AM 41.1209 126.4520 180° South  Level Estimated
04:24AM 41.0527 126.4520 180° South  Level Estimated
04:25AM 40.9845 126.4520 180° South  Level Estimated
04:26AM 40.9163 126.4520 180° South  Level Estimated
04:27AM 40.8482 126.4519 180° South  Level Estimated
04:28AM 40.7800 126.4519 180° South  Level Estimated
04:29AM 40.7118 126.4519 180° South  Level Estimated
04:30AM 40.6436 126.4518 180° South  Level Estimated
04:31AM 40.5754 126.4518 180° South  Level Estimated
04:32AM 40.5073 126.4518 180° South  Level Estimated
04:33AM 40.4391 126.4517 180° South  Level Estimated
04:34AM 40.3709 126.4517 180° South  Level Estimated
04:35AM 40.3027 126.4517 180° South  Level Estimated
04:36AM 40.2345 126.4517 180° South  Level Estimated
04:37AM 40.1664 126.4516 180° South  Level Estimated
04:38AM 40.0982 126.4516 180° South  Level Estimated
04:39AM 40.0300 126.4516 180° South  Level Estimated
04:40AM 39.9618 126.4515 180° South  Level Estimated
04:41AM 39.8936 126.4515 180° South  Level Estimated
04:42AM 39.8255 126.4515 180° South  Level Estimated
04:43AM 39.7573 126.4514 180° South  Level Estimated
04:44AM 39.6891 126.4514 180° South  Level Estimated
04:45AM 39.6209 126.4514 180° South  Level Estimated
04:46AM 39.5527 126.4513 180° South  Level Estimated
04:47AM 39.4846 126.4513 180° South  Level Estimated
04:48AM 39.4164 126.4513 180° South  Level Estimated
04:49AM 39.3482 126.4513 180° South  Level Estimated
04:50AM 39.2800 126.4512 180° South  Level Estimated
04:51AM 39.2118 126.4512 180° South  Level Estimated
04:52AM 39.1437 126.4512 180° South  Level Estimated
04:53AM 39.0755 126.4511 180° South  Level Estimated
04:54AM 39.0073 126.4511 180° South  Level Estimated
04:55AM 38.9391 126.4511 180° South  Level Estimated
04:56AM 38.8709 126.4510 180° South  Level Estimated
04:57AM 38.8028 126.4510 180° South  Level Estimated
04:58AM 38.7346 126.4510 180° South  Level Estimated
04:59AM 38.6664 126.4510 180° South  Level Estimated
05:00AM 38.5982 126.4509 180° South  Level Estimated
05:01AM 38.5300 126.4509 180° South  Level Estimated
05:02AM 38.4619 126.4509 180° South  Level Estimated
05:03AM 38.3937 126.4509 180° South  Level Estimated
05:04AM 38.3255 126.4508 180° South  Level Estimated
05:05AM 38.2573 126.4508 180° South  Level Estimated
05:06AM 38.1891 126.4508 180° South  Level Estimated
05:07AM 38.1210 126.4508 180° South  Level Estimated
05:08AM 38.0528 126.4507 180° South  Level Estimated
05:09AM 37.9846 126.4507 180° South  Level Estimated
05:10AM 37.9164 126.4507 180° South  Level Estimated
05:11AM 37.8482 126.4507 180° South  Level Estimated
05:12AM 37.7801 126.4506 180° South  Level Estimated
05:13AM 37.7119 126.4506 180° South  Level Estimated
05:14AM 37.6437 126.4506 180° South  Level Estimated
05:15AM 37.5755 126.4506 180° South  Level Estimated
05:16AM 37.5073 126.4505 180° South  Level Estimated
05:17AM 37.4691 126.4505 180° South  Level Estimated
05:18AM 37.4691 126.4505 335° Northwest  Level Estimated
05:19AM 37.4691 126.4505 335° Northwest  Level Estimated
05:20AM 37.4691 126.4505 335° Northwest  Level Estimated
05:21AM 37.4691 126.4505 335° Northwest  Level Estimated
05:22AM 37.4691 126.4505 335° Northwest  Level Estimated
05:23AM 37.4691 126.4505 335° Northwest  Level Estimated
05:24AM 37.4691 126.4505 335° Northwest  Level Estimated
05:25AM 37.4691 126.4505 335° Northwest  Level Estimated
05:26AM 37.4691 126.4505 335° Northwest  Level Estimated
05:27AM 37.4691 126.4505 335° Northwest  Level Estimated
05:28AM 37.4691 126.4505 335° Northwest  Level Estimated
05:29AM 37.4691 126.4505 335° Northwest  Level Estimated
05:30AM 37.4691 126.4505 335° Northwest  Level Estimated
05:31AM 37.4691 126.4505 335° Northwest  Level Estimated
05:32AM 37.4691 126.4505 335° Northwest  Level Estimated
05:33AM 37.4691 126.4505 335° Northwest  Level Estimated
05:34AM 37.4691 126.4505 335° Northwest  Level Estimated
05:35AM 37.4691 126.4505 335° Northwest  Level Estimated
05:36AM 37.4691 126.4505 335° Northwest  Level Estimated
05:37AM 37.4691 126.4505 335° Northwest  Level Estimated
05:38AM 37.4691 126.4505 335° Northwest  Level Estimated
05:39AM 37.4691 126.4505 335° Northwest  Level Estimated
05:40AM 37.4691 126.4505 335° Northwest  Level Estimated
05:41AM 37.4691 126.4505 335° Northwest  Level Estimated
05:42AM 37.4691 126.4505 335° Northwest  Level Estimated